Time;durP1;ratioP1;P1;durP2;ratioP2;P2;SDS_P1;SDS_P2;PMS_P1;PMS_P2;Temp;Humidity;BMP_temperature;BMP_pressure;BME280_temperature;BME280_humidity;BME280_pressure;Samples;Min_cycle;Max_cycle;Signal;HPM_P1;HPM_P2
2023/06/25 00:00:54;;;;;;;8.33;6.93;;;;;;;18.87;100.00;103312.09;5050385;28;20570;-74
2023/06/25 00:03:20;;;;;;;8.60;6.70;;;;;;;18.94;100.00;103309.44;5082713;28;20331;-74
2023/06/25 00:05:45;;;;;;;12.03;7.00;;;;;;;18.51;100.00;103238.69;5052132;28;20207;-74
2023/06/25 00:08:11;;;;;;;10.80;7.80;;;;;;;18.17;100.00;103239.41;5048871;28;20193;-74
2023/06/25 00:10:36;;;;;;;11.50;7.43;;;;;;;18.41;100.00;103330.59;5047970;28;20612;-72
2023/06/25 00:13:02;;;;;;;8.87;7.27;;;;;;;18.63;100.00;103432.88;5049161;28;20191;-72
2023/06/25 00:15:27;;;;;;;9.70;7.80;;;;;;;18.56;100.00;103403.94;5049770;28;20211;-72
2023/06/25 00:17:53;;;;;;;9.87;7.27;;;;;;;18.51;100.00;103359.16;5049477;28;20888;-73
2023/06/25 00:20:19;;;;;;;8.83;7.27;;;;;;;18.84;100.00;103347.84;5066802;28;20179;-72
2023/06/25 00:22:45;;;;;;;9.60;7.97;;;;;;;18.75;100.00;103319.09;5050192;28;20472;-72
2023/06/25 00:25:14;;;;;;;9.13;7.87;;;;;;;18.71;100.00;103336.78;5050593;28;20191;-72
2023/06/25 00:27:40;;;;;;;12.17;8.50;;;;;;;18.28;100.00;103290.50;5052095;28;20438;-72
2023/06/25 00:30:07;;;;;;;10.30;7.90;;;;;;;18.58;100.00;103364.66;5054773;28;20438;-72
2023/06/25 00:32:33;;;;;;;9.97;8.30;;;;;;;17.81;100.00;103194.03;5055222;28;20458;-73
2023/06/25 00:35:00;;;;;;;11.67;8.73;;;;;;;18.80;100.00;103305.72;5086009;28;20977;-72
2023/06/25 00:37:26;;;;;;;10.43;8.80;;;;;;;18.56;100.00;103298.75;5061246;28;20432;-73
2023/06/25 00:39:51;;;;;;;10.50;8.53;;;;;;;18.60;100.00;103349.00;5065055;28;20506;-73
2023/06/25 00:42:17;;;;;;;14.30;10.13;;;;;;;18.09;100.00;103275.66;5054529;28;20565;-73
2023/06/25 00:44:43;;;;;;;10.30;8.80;;;;;;;18.64;100.00;103327.72;5057708;28;20230;-73
2023/06/25 00:47:12;;;;;;;12.97;10.53;;;;;;;18.07;100.00;103220.69;5052337;28;20191;-73
2023/06/25 00:49:45;;;;;;;14.33;10.03;;;;;;;18.40;100.00;103329.75;5053403;28;20897;-73
2023/06/25 00:52:12;;;;;;;15.03;11.63;;;;;;;17.32;100.00;103114.06;5052804;28;20792;-73
2023/06/25 00:54:42;;;;;;;13.33;11.97;;;;;;;18.59;100.00;103297.53;5053871;28;20437;-73
2023/06/25 00:57:09;;;;;;;12.90;10.40;;;;;;;18.57;100.00;103286.84;5054538;28;20445;-73
2023/06/25 00:59:39;;;;;;;13.67;11.83;;;;;;;17.95;100.00;103277.34;5082703;28;20442;-73
2023/06/25 01:02:32;;;;;;;13.80;11.40;;;;;;;17.40;100.00;103206.19;5049023;28;20816;-73
2023/06/25 01:05:09;;;;;;;14.47;10.83;;;;;;;18.27;100.00;103327.69;5051002;28;20464;-73
2023/06/25 01:07:36;;;;;;;14.70;11.90;;;;;;;18.10;100.00;103328.94;5050198;28;20448;-73
2023/06/25 01:10:03;;;;;;;13.43;11.53;;;;;;;18.36;100.00;103390.06;5048367;28;20506;-73
2023/06/25 01:12:29;;;;;;;14.90;11.80;;;;;;;18.26;100.00;103372.19;5047494;28;20511;-73
2023/06/25 01:14:56;;;;;;;14.57;12.17;;;;;;;17.97;100.00;103321.47;5048552;28;20851;-73
2023/06/25 01:17:22;;;;;;;12.50;11.30;;;;;;;18.07;100.00;103432.50;5044923;28;20195;-72
2023/06/25 01:19:47;;;;;;;14.90;11.70;;;;;;;17.86;100.00;103381.66;5047437;28;20441;-73
2023/06/25 01:22:16;;;;;;;15.73;13.17;;;;;;;18.04;100.00;103417.44;5048288;28;20207;-73
2023/06/25 01:24:44;;;;;;;14.57;12.23;;;;;;;18.11;100.00;103432.97;5051084;28;20215;-72
2023/06/25 01:27:10;;;;;;;13.93;12.27;;;;;;;17.63;100.00;103373.53;5050728;28;20437;-73
2023/06/25 01:29:38;;;;;;;12.70;11.40;;;;;;;18.25;100.00;103464.75;5081719;28;20442;-73
2023/06/25 01:32:06;;;;;;;17.10;12.70;;;;;;;17.95;100.00;103398.69;5053396;28;20525;-73
2023/06/25 01:34:32;;;;;;;14.03;12.33;;;;;;;17.59;100.00;103411.06;5053509;28;20441;-73
2023/06/25 01:36:57;;;;;;;15.30;13.40;;;;;;;18.16;100.00;103465.88;5049060;28;20444;-73
2023/06/25 01:39:23;;;;;;;14.00;12.50;;;;;;;16.33;100.00;103205.44;5051980;28;20191;-72
2023/06/25 01:41:49;;;;;;;14.13;12.53;;;;;;;18.03;100.00;103434.75;5052365;28;20785;-72
2023/06/25 01:44:19;;;;;;;15.50;12.20;;;;;;;17.92;100.00;103446.06;5051004;28;20812;-72
2023/06/25 01:46:44;;;;;;;13.87;12.30;;;;;;;17.73;100.00;103417.53;5046949;28;20192;-73
2023/06/25 01:49:10;;;;;;;13.97;11.83;;;;;;;18.01;100.00;103453.09;5049304;28;20510;-73
2023/06/25 01:51:35;;;;;;;16.00;13.30;;;;;;;17.80;100.00;103404.13;5048497;28;20209;-72
2023/06/25 01:54:01;;;;;;;13.53;12.13;;;;;;;17.84;100.00;103432.56;5047472;28;20721;-72
2023/06/25 01:56:26;;;;;;;15.10;12.27;;;;;;;17.90;100.00;103469.84;5048261;28;20194;-73
2023/06/25 01:58:53;;;;;;;13.40;11.93;;;;;;;17.40;100.00;103371.69;5049836;28;20582;-72
2023/06/25 02:01:21;;;;;;;15.10;13.20;;;;;;;17.95;100.00;103436.72;5048263;28;20207;-72
2023/06/25 02:03:47;;;;;;;14.93;12.20;;;;;;;17.69;100.00;103432.50;5047181;28;20502;-72
2023/06/25 02:06:12;;;;;;;15.47;11.60;;;;;;;17.55;100.00;103384.47;5048648;28;20470;-72
2023/06/25 02:08:38;;;;;;;14.40;12.40;;;;;;;17.48;100.00;103383.53;5045184;28;20226;-72
2023/06/25 02:11:06;;;;;;;12.93;11.63;;;;;;;17.73;100.00;103408.53;5046314;28;20290;-72
2023/06/25 02:13:32;;;;;;;14.93;12.70;;;;;;;16.54;100.00;103223.75;5046542;28;20211;-73
2023/06/25 02:15:57;;;;;;;14.27;12.80;;;;;;;16.09;100.00;103198.31;5048635;28;20517;-72
2023/06/25 02:18:22;;;;;;;13.07;11.70;;;;;;;16.35;100.00;103246.75;5052774;28;20180;-73
2023/06/25 02:20:48;;;;;;;14.33;12.83;;;;;;;16.66;100.00;103316.28;5051199;28;20215;-73
2023/06/25 02:23:14;;;;;;;13.07;11.50;;;;;;;16.26;100.00;103204.50;5050501;28;20207;-72
2023/06/25 02:25:39;;;;;;;14.80;12.43;;;;;;;17.13;100.00;103364.97;5051397;28;20609;-72
2023/06/25 02:28:04;;;;;;;13.77;12.20;;;;;;;17.68;100.00;103438.13;5052690;28;20767;-73
2023/06/25 02:30:30;;;;;;;13.33;11.93;;;;;;;17.56;100.00;103432.28;5051351;28;20207;-72
2023/06/25 02:32:55;;;;;;;14.67;11.47;;;;;;;16.38;100.00;103278.88;5052514;28;20195;-72
2023/06/25 02:35:21;;;;;;;13.90;12.30;;;;;;;17.66;100.00;103445.59;5051526;28;20194;-72
2023/06/25 02:37:47;;;;;;;12.53;11.23;;;;;;;17.69;100.00;103437.94;5055185;28;20262;-72
2023/06/25 02:40:12;;;;;;;14.73;12.30;;;;;;;17.54;100.00;103440.59;5054885;28;20260;-72
2023/06/25 02:42:38;;;;;;;16.87;12.80;;;;;;;17.06;100.00;103406.53;5062954;28;20205;-72
2023/06/25 02:45:03;;;;;;;15.47;13.23;;;;;;;17.44;100.00;103422.88;5055719;28;20257;-72
2023/06/25 02:47:29;;;;;;;14.97;12.10;;;;;;;16.92;100.00;103330.41;5054948;28;20183;-72
2023/06/25 02:49:54;;;;;;;14.20;11.60;;;;;;;17.50;100.00;103404.03;5058568;28;20183;-72
2023/06/25 02:52:20;;;;;;;14.03;11.97;;;;;;;16.36;100.00;103174.44;5056010;28;20592;-72
2023/06/25 02:54:45;;;;;;;15.70;12.27;;;;;;;17.55;100.00;103338.31;5057671;28;20253;-72
2023/06/25 02:57:10;;;;;;;13.27;11.97;;;;;;;16.86;100.00;103257.91;5058676;28;20182;-72
2023/06/25 02:59:36;;;;;;;14.37;12.90;;;;;;;17.42;100.00;103295.56;5057942;28;20186;-72
2023/06/25 03:02:01;;;;;;;13.23;11.83;;;;;;;16.11;100.00;103068.19;5053746;28;20581;-72
2023/06/25 03:04:27;;;;;;;14.23;12.10;;;;;;;16.06;100.00;103105.81;5058106;28;20694;-72
2023/06/25 03:06:52;;;;;;;13.43;11.93;;;;;;;17.37;100.00;103344.94;5054188;28;20187;-72
2023/06/25 03:09:18;;;;;;;14.00;11.30;;;;;;;17.26;100.00;103345.38;5053158;28;20215;-72
2023/06/25 03:11:43;;;;;;;13.20;11.00;;;;;;;17.28;100.00;103372.31;5053464;28;20627;-72
2023/06/25 03:14:09;;;;;;;14.60;11.80;;;;;;;17.43;100.00;103364.22;5050042;28;20194;-72
2023/06/25 03:16:34;;;;;;;13.73;12.20;;;;;;;17.30;100.00;103278.03;5052542;28;20231;-72
2023/06/25 03:19:00;;;;;;;13.80;12.30;;;;;;;16.97;100.00;103152.78;5049672;28;20652;-72
2023/06/25 03:21:26;;;;;;;14.60;12.67;;;;;;;17.14;100.00;103203.94;5054098;28;20601;-72
2023/06/25 03:23:51;;;;;;;13.57;12.00;;;;;;;17.45;100.00;103302.50;5051475;28;20470;-72
2023/06/25 03:26:17;;;;;;;14.87;12.03;;;;;;;16.93;100.00;103241.78;5049552;28;20194;-72
2023/06/25 03:28:42;;;;;;;12.73;11.43;;;;;;;17.06;100.00;103255.53;5056422;28;20233;-72
2023/06/25 03:31:08;;;;;;;14.50;12.33;;;;;;;17.46;100.00;103280.59;5049998;28;20255;-72
2023/06/25 03:33:33;;;;;;;15.80;13.10;;;;;;;17.33;100.00;103304.81;5050572;28;20592;-72
2023/06/25 03:35:58;;;;;;;15.07;12.43;;;;;;;17.49;100.00;103276.66;5052997;28;20187;-72
2023/06/25 03:38:24;;;;;;;18.50;12.57;;;;;;;16.49;100.00;103088.03;5049642;28;20609;-72
2023/06/25 03:40:49;;;;;;;14.17;12.67;;;;;;;17.03;100.00;103196.25;5050906;28;20728;-72
2023/06/25 03:43:15;;;;;;;15.83;13.87;;;;;;;17.22;100.00;103294.41;5051547;28;20204;-72
2023/06/25 03:45:40;;;;;;;15.20;12.20;;;;;;;17.18;100.00;103245.09;5049765;28;20196;-72
2023/06/25 03:48:05;;;;;;;15.23;12.73;;;;;;;17.44;100.00;103292.66;5050666;28;20231;-72
2023/06/25 03:50:31;;;;;;;14.47;12.37;;;;;;;16.53;100.00;103188.72;5051782;28;20211;-72
2023/06/25 03:52:56;;;;;;;16.50;14.50;;;;;;;17.03;100.00;103263.19;5048417;28;20192;-72
2023/06/25 03:55:22;;;;;;;16.90;12.47;;;;;;;16.97;100.00;103304.59;5048446;28;20210;-72
2023/06/25 03:57:47;;;;;;;15.17;13.53;;;;;;;16.89;100.00;103267.53;5048638;28;20565;-72
2023/06/25 04:00:13;;;;;;;16.03;14.33;;;;;;;17.10;100.00;103315.69;5048797;28;20187;-72
2023/06/25 04:02:38;;;;;;;19.30;13.07;;;;;;;17.18;100.00;103350.84;5050695;28;20192;-72
2023/06/25 04:05:04;;;;;;;19.83;14.30;;;;;;;16.55;100.00;103238.13;5051256;28;20195;-72
2023/06/25 04:07:29;;;;;;;20.17;13.60;;;;;;;16.22;100.00;103232.94;5051690;28;20294;-72
2023/06/25 04:09:55;;;;;;;18.70;13.37;;;;;;;17.35;100.00;103416.66;5049403;28;20219;-72
2023/06/25 04:12:20;;;;;;;16.63;13.43;;;;;;;17.27;100.00;103367.91;5051095;28;21012;-72
2023/06/25 04:14:46;;;;;;;17.37;12.87;;;;;;;17.06;100.00;103298.09;5048162;28;20844;-72
2023/06/25 04:17:11;;;;;;;16.00;13.40;;;;;;;16.48;100.00;103173.84;5047959;28;20223;-72
2023/06/25 04:19:38;;;;;;;19.20;15.00;;;;;;;17.46;100.00;103326.72;5048026;28;20210;-72
2023/06/25 04:22:04;;;;;;;16.70;13.43;;;;;;;16.96;100.00;103292.91;5047369;28;20209;-72
2023/06/25 04:24:30;;;;;;;21.97;14.00;;;;;;;17.21;100.00;103336.09;5048973;28;20561;-72
2023/06/25 04:26:55;;;;;;;18.33;14.27;;;;;;;17.06;100.00;103290.78;5049985;28;20196;-72
2023/06/25 04:29:21;;;;;;;26.90;14.03;;;;;;;16.42;100.00;103174.56;5050793;28;20450;-72
2023/06/25 04:31:46;;;;;;;19.53;14.07;;;;;;;16.96;100.00;103214.31;5052231;28;20301;-72
2023/06/25 04:34:12;;;;;;;17.80;14.37;;;;;;;16.70;100.00;103138.78;5054067;28;20237;-72
2023/06/25 04:36:37;;;;;;;19.30;14.00;;;;;;;17.59;100.00;103260.97;5054547;28;20651;-72
2023/06/25 04:39:03;;;;;;;16.07;13.83;;;;;;;17.84;100.00;103261.53;5055413;28;20184;-72
2023/06/25 04:41:28;;;;;;;17.53;13.70;;;;;;;17.78;100.00;103306.56;5056686;28;20289;-72
2023/06/25 04:43:54;;;;;;;20.20;14.97;;;;;;;16.97;100.00;103155.50;5053747;28;20211;-72
2023/06/25 04:46:19;;;;;;;20.93;13.97;;;;;;;16.29;100.00;103006.44;5054968;28;20253;-72
2023/06/25 04:48:46;;;;;;;21.17;14.30;;;;;;;17.80;100.00;103211.38;5054722;28;20180;-72
2023/06/25 04:51:13;;;;;;;20.03;14.00;;;;;;;17.90;100.00;103214.63;5054375;28;20199;-72
2023/06/25 04:53:38;;;;;;;24.60;15.50;;;;;;;17.95;100.00;103189.63;5053586;28;20438;-72
2023/06/25 04:56:04;;;;;;;17.67;13.97;;;;;;;16.71;100.00;103018.50;5054264;28;20425;-72
2023/06/25 04:58:29;;;;;;;15.47;12.83;;;;;;;17.98;100.00;103238.94;5055501;28;20183;-72
2023/06/25 05:00:55;;;;;;;19.93;13.37;;;;;;;17.86;100.00;103207.91;5051538;28;20230;-73
2023/06/25 05:03:20;;;;;;;20.03;13.47;;;;;;;17.95;100.00;103217.63;5050137;28;20210;-73
2023/06/25 05:05:46;;;;;;;20.80;13.43;;;;;;;17.93;100.00;103170.78;5052350;28;20176;-73
2023/06/25 05:08:11;;;;;;;16.93;13.10;;;;;;;17.21;100.00;103052.16;5046758;28;20753;-73
2023/06/25 05:10:37;;;;;;;16.30;13.43;;;;;;;18.26;100.00;103265.41;5051244;28;20211;-73
2023/06/25 05:13:03;;;;;;;17.73;13.17;;;;;;;18.26;100.00;103290.69;5051363;28;20211;-74
2023/06/25 05:15:29;;;;;;;18.33;12.70;;;;;;;18.36;100.00;103287.66;5049432;28;20180;-73
2023/06/25 05:17:55;;;;;;;15.03;12.83;;;;;;;18.41;100.00;103292.53;5046173;28;20950;-74
2023/06/25 05:20:20;;;;;;;15.80;12.80;;;;;;;18.37;100.00;103226.00;5046035;28;20187;-73
2023/06/25 05:22:46;;;;;;;18.90;14.47;;;;;;;17.70;100.00;103075.91;5048906;28;20187;-73
2023/06/25 05:25:11;;;;;;;17.60;15.60;;;;;;;18.35;100.00;103163.72;5050408;28;20278;-73
2023/06/25 05:27:36;;;;;;;17.50;13.67;;;;;;;17.91;100.00;103085.16;5048286;28;20184;-74
2023/06/25 05:30:02;;;;;;;17.20;13.67;;;;;;;18.66;100.00;103160.66;5047802;28;20187;-74
2023/06/25 05:32:28;;;;;;;16.50;12.83;;;;;;;18.83;100.00;103165.84;5049699;28;20679;-71
2023/06/25 05:34:53;;;;;;;15.80;13.30;;;;;;;18.09;100.00;103044.81;5045190;28;20464;-73
2023/06/25 05:37:19;;;;;;;14.03;12.53;;;;;;;17.89;100.00;102970.47;5051315;28;20179;-73
2023/06/25 05:39:44;;;;;;;15.93;12.23;;;;;;;18.88;100.00;103082.63;5048706;28;20214;-73
2023/06/25 05:42:10;;;;;;;16.77;11.17;;;;;;;18.97;100.00;103045.25;5050981;28;20207;-71
2023/06/25 05:44:35;;;;;;;11.73;10.10;;;;;;;18.84;100.00;103026.97;5052631;28;20206;-71
2023/06/25 05:47:01;;;;;;;13.23;9.70;;;;;;;19.10;100.00;103018.13;5044668;28;20452;-72
2023/06/25 05:49:26;;;;;;;14.73;9.83;;;;;;;19.07;100.00;102957.84;5048323;28;20190;-71
2023/06/25 05:51:52;;;;;;;12.63;9.60;;;;;;;19.11;100.00;102900.09;5050676;28;20744;-72
2023/06/25 05:54:17;;;;;;;12.70;9.93;;;;;;;19.31;100.00;102894.69;5051781;28;20182;-72
2023/06/25 05:56:43;;;;;;;10.60;8.97;;;;;;;19.43;100.00;102837.78;5055249;28;20218;-72
2023/06/25 05:59:08;;;;;;;15.83;10.50;;;;;;;19.41;100.00;102853.47;5050744;28;20215;-72
2023/06/25 06:01:33;;;;;;;12.90;11.03;;;;;;;19.41;100.00;102853.47;5051985;28;20250;-71
2023/06/25 06:03:59;;;;;;;12.80;10.17;;;;;;;19.47;100.00;102840.91;5051660;28;20198;-72
2023/06/25 06:06:27;;;;;;;11.97;9.97;;;;;;;19.00;100.00;102748.41;5050090;28;20298;-72
2023/06/25 06:08:53;;;;;;;13.80;9.90;;;;;;;19.42;100.00;102782.50;5052568;28;20197;-71
2023/06/25 06:11:18;;;;;;;12.03;9.90;;;;;;;18.57;100.00;102631.03;5048204;28;20465;-72
2023/06/25 06:13:44;;;;;;;13.57;11.50;;;;;;;18.87;100.00;102640.50;5050641;28;20240;-72
2023/06/25 06:16:09;;;;;;;12.47;9.97;;;;;;;19.66;100.00;102755.69;5049575;28;20942;-72
2023/06/25 06:18:34;;;;;;;12.13;10.20;;;;;;;19.80;100.00;102757.34;5048418;28;20180;-71
2023/06/25 06:21:00;;;;;;;12.57;8.90;;;;;;;19.71;100.00;102725.97;5049522;28;20211;-72
2023/06/25 06:23:25;;;;;;;9.73;8.13;;;;;;;19.73;100.00;102744.78;5052940;28;20218;-72
2023/06/25 06:25:51;;;;;;;8.60;7.80;;;;;;;18.74;100.00;102557.06;5053094;28;20194;-72
2023/06/25 06:28:16;;;;;;;7.73;6.93;;;;;;;18.35;100.00;102446.53;5055610;28;20180;-72
2023/06/25 06:30:42;;;;;;;8.00;7.20;;;;;;;19.99;100.00;102684.81;5054471;28;20209;-71
2023/06/25 06:33:07;;;;;;;9.40;7.80;;;;;;;20.10;100.00;102650.56;5064899;28;20223;-72
2023/06/25 06:35:33;;;;;;;9.30;7.63;;;;;;;19.48;100.00;102491.53;5055083;28;20278;-71
2023/06/25 06:37:58;;;;;;;9.33;7.67;;;;;;;20.26;100.00;102576.50;5058841;28;20191;-71
2023/06/25 06:40:23;;;;;;;9.03;8.13;;;;;;;19.43;100.00;102384.16;5057672;28;20192;-71
2023/06/25 06:42:49;;;;;;;14.57;8.90;;;;;;;20.21;100.00;102507.38;5051457;28;20191;-71
2023/06/25 06:45:14;;;;;;;11.13;9.37;;;;;;;20.30;100.00;102523.22;5054488;28;20195;-71
2023/06/25 06:47:40;;;;;;;10.60;9.20;;;;;;;19.34;100.00;102338.41;5058358;28;20188;-71
2023/06/25 06:50:06;;;;;;;14.70;9.03;;;;;;;19.84;100.00;102403.75;5057766;28;20263;-71
2023/06/25 06:52:32;;;;;;;11.37;8.43;;;;;;;20.48;100.00;102464.34;5054956;28;20206;-71
2023/06/25 06:54:57;;;;;;;8.90;7.43;;;;;;;20.60;100.00;102478.94;5054653;28;20796;-71
2023/06/25 06:57:23;;;;;;;10.63;8.53;;;;;;;20.58;100.00;102482.97;5050229;28;20198;-72
2023/06/25 06:59:48;;;;;;;11.13;8.77;;;;;;;20.65;100.00;102461.91;5051546;28;20198;-72
2023/06/25 07:02:13;;;;;;;10.23;7.37;;;;;;;20.78;100.00;102450.84;5050396;28;20210;-72
2023/06/25 07:04:39;;;;;;;10.97;8.67;;;;;;;20.89;100.00;102438.34;5050752;28;20216;-73
2023/06/25 07:07:05;;;;;;;10.77;7.60;;;;;;;19.70;100.00;102253.34;5056257;28;20226;-73
2023/06/25 07:09:31;;;;;;;10.90;9.30;;;;;;;20.97;100.00;102444.31;5055003;28;20192;-72
2023/06/25 07:11:56;;;;;;;14.80;8.13;;;;;;;20.11;100.00;102308.22;5054605;28;20529;-73
2023/06/25 07:14:22;;;;;;;10.20;7.77;;;;;;;19.90;100.00;102242.22;5053396;28;20183;-73
2023/06/25 07:16:47;;;;;;;10.40;8.10;;;;;;;20.65;100.00;102355.56;5053467;28;20651;-73
2023/06/25 07:19:13;;;;;;;9.27;7.53;;;;;;;21.13;100.00;102422.91;5054392;28;20221;-73
2023/06/25 07:21:39;;;;;;;11.10;8.70;;;;;;;20.97;100.00;102387.03;5053375;28;20208;-73
2023/06/25 07:24:04;;;;;;;9.50;7.40;;;;;;;21.27;100.00;102409.94;5051073;28;20257;-73
2023/06/25 07:26:30;;;;;;;10.57;8.83;;;;;;;20.56;100.00;102281.44;5051715;28;20543;-74
2023/06/25 07:28:55;;;;;;;13.37;8.20;;;;;;;20.30;100.00;102233.56;5053163;28;20202;-73
2023/06/25 07:31:21;;;;;;;9.43;8.13;;;;;;;21.42;100.00;102411.19;5049970;28;20219;-68
2023/06/25 07:33:46;;;;;;;9.53;7.20;;;;;;;20.46;100.00;102262.91;5058174;28;20188;-70
2023/06/25 07:36:12;;;;;;;10.33;8.90;;;;;;;21.25;100.00;102343.81;5052165;28;20191;-71
2023/06/25 07:38:37;;;;;;;11.03;9.37;;;;;;;20.88;100.00;102279.31;5054669;28;20550;-68
2023/06/25 07:41:03;;;;;;;12.53;9.37;;;;;;;21.67;100.00;102378.22;5054132;28;20352;-68
2023/06/25 07:43:28;;;;;;;11.03;8.23;;;;;;;21.57;100.00;102366.22;5055269;28;20302;-68
2023/06/25 07:45:53;;;;;;;10.00;9.10;;;;;;;20.89;100.00;102256.44;5054554;28;20793;-68
2023/06/25 07:48:19;;;;;;;9.63;8.73;;;;;;;20.86;100.00;102259.66;5052367;28;20269;-67
2023/06/25 07:50:44;;;;;;;12.03;9.53;;;;;;;22.20;100.00;102348.31;5052916;28;20227;-67
2023/06/25 07:53:10;;;;;;;10.07;8.63;;;;;;;21.52;100.00;102188.66;5054187;28;20187;-67
2023/06/25 07:55:40;;;;;;;10.37;9.23;;;;;;;22.15;100.00;102326.31;5055404;28;20668;-68
2023/06/25 07:58:06;;;;;;;10.60;9.60;;;;;;;22.19;100.00;102346.63;5054114;28;20187;-79
2023/06/25 08:00:31;;;;;;;11.77;10.53;;;;;;;20.92;100.00;102138.72;5051996;28;20466;-78
2023/06/25 08:02:57;;;;;;;16.43;10.03;;;;;;;21.97;100.00;102278.94;5047201;28;20284;-79
2023/06/25 08:05:22;;;;;;;10.77;9.60;;;;;;;21.40;100.00;102224.97;5049946;28;20817;-76
2023/06/25 08:07:48;;;;;;;11.33;10.07;;;;;;;21.22;100.00;102145.94;5052748;28;20204;-76
2023/06/25 08:10:13;;;;;;;11.47;10.10;;;;;;;19.59;100.00;101911.97;5052523;28;20198;-77
2023/06/25 08:12:39;;;;;;;13.67;8.73;;;;;;;20.30;100.00;102053.75;5052289;28;20278;-79
2023/06/25 08:15:05;;;;;;;13.13;9.90;;;;;;;19.11;100.00;101842.16;5051792;28;20187;-75
2023/06/25 08:17:30;;;;;;;11.40;9.53;;;;;;;21.80;100.00;102231.59;5053467;28;20187;-75
2023/06/25 08:19:56;;;;;;;10.60;9.60;;;;;;;21.06;100.00;102103.00;5085057;28;20446;-74
2023/06/25 08:22:21;;;;;;;11.23;9.77;;;;;;;21.73;100.00;102214.50;5052984;28;21202;-76
2023/06/25 08:24:47;;;;;;;10.97;9.90;;;;;;;21.23;100.00;102101.19;5050277;28;20679;-76
2023/06/25 08:27:12;;;;;;;11.53;9.80;;;;;;;22.43;100.00;102287.28;5052003;28;20269;-77
2023/06/25 08:29:38;;;;;;;13.43;8.47;;;;;;;22.31;100.00;102235.41;5055080;28;20269;-78
2023/06/25 08:32:03;;;;;;;11.33;10.20;;;;;;;19.94;100.00;101824.09;5053353;28;20703;-80
2023/06/25 08:34:29;;;;;;;10.53;9.33;;;;;;;21.25;100.00;102030.84;5053332;28;20263;-75
2023/06/25 08:36:55;;;;;;;10.40;9.37;;;;;;;22.20;100.00;102217.16;5050636;28;20279;-80
2023/06/25 08:39:21;;;;;;;9.97;9.00;;;;;;;22.67;100.00;102288.84;5049762;28;20633;-73
2023/06/25 08:41:48;;;;;;;9.37;8.47;;;;;;;22.74;100.00;102281.34;5048143;28;20854;-80
2023/06/25 08:44:14;;;;;;;11.57;9.50;;;;;;;22.82;100.00;102295.69;5051367;28;20344;-76
2023/06/25 08:46:48;;;;;;;11.17;9.17;;;;;;;22.82;100.00;102298.41;5051216;28;20869;-73
2023/06/25 08:49:15;;;;;;;10.07;9.17;;;;;;;22.73;100.00;102189.41;5053514;28;20567;-72
2023/06/25 08:51:41;;;;;;;10.37;9.30;;;;;;;22.89;100.00;102116.63;5049592;28;20472;-71
2023/06/25 08:54:07;;;;;;;12.73;9.00;;;;;;;23.10;100.00;102116.97;5050883;28;20437;-71
2023/06/25 08:56:33;;;;;;;8.97;8.03;;;;;;;22.88;100.00;102029.34;5048033;28;20188;-71
2023/06/25 08:58:58;;;;;;;10.30;9.20;;;;;;;22.89;100.00;102020.88;5045408;28;20938;-71
2023/06/25 09:01:24;;;;;;;12.53;8.70;;;;;;;23.35;100.00;102059.84;5050383;28;20562;-70
2023/06/25 09:03:51;;;;;;;9.63;8.73;;;;;;;22.76;100.00;101999.34;5050182;28;20234;-73
2023/06/25 09:06:17;;;;;;;10.60;9.47;;;;;;;22.66;100.00;101959.03;5049930;28;20188;-72
2023/06/25 09:08:44;;;;;;;9.43;8.50;;;;;;;23.72;100.00;102041.91;5051131;28;20818;-76
2023/06/25 09:11:10;;;;;;;9.70;8.70;;;;;;;23.86;100.00;102016.56;5051579;28;20215;-78
2023/06/25 09:13:37;;;;;;;11.37;9.87;;;;;;;24.22;100.00;102002.38;5053738;28;20433;-76
2023/06/25 09:16:07;;;;;;;11.83;9.40;;;;;;;23.71;100.00;102015.63;5053020;28;20541;-74
2023/06/25 09:18:32;;;;;;;8.53;6.97;;;;;;;23.73;100.00;101882.78;5050595;28;20540;-77
2023/06/25 09:21:02;;;;;;;11.87;9.37;;;;;;;24.27;100.00;101981.31;5049204;28;20471;-71
2023/06/25 09:23:28;;;;;;;9.67;8.60;;;;;;;23.83;100.00;101984.22;5050875;28;20211;-71
2023/06/25 09:25:53;;;;;;;11.03;8.33;;;;;;;23.47;100.00;101955.66;5050654;28;20556;-71
2023/06/25 09:28:19;;;;;;;9.70;8.80;;;;;;;23.22;100.00;101841.25;5052546;28;20715;-72
2023/06/25 09:30:45;;;;;;;8.70;7.87;;;;;;;23.66;100.00;101978.00;5050584;28;20282;-72
2023/06/25 09:33:12;;;;;;;9.60;8.70;;;;;;;23.94;100.00;101976.94;5049858;28;20986;-72
2023/06/25 09:35:39;;;;;;;8.13;7.33;;;;;;;23.77;100.00;101949.66;5050826;28;20207;-73
2023/06/25 09:38:05;;;;;;;10.33;8.20;;;;;;;23.40;100.00;101917.53;5049276;28;20452;-74
2023/06/25 09:40:31;;;;;;;10.70;8.47;;;;;;;24.71;100.00;101959.13;5065109;28;20291;-75
2023/06/25 09:42:59;;;;;;;8.93;8.13;;;;;;;23.84;100.00;101903.69;5050395;28;20934;-73
2023/06/25 09:45:25;;;;;;;9.50;8.20;;;;;;;23.36;100.00;101875.31;5051166;28;20452;-74
2023/06/25 09:47:52;;;;;;;9.47;8.57;;;;;;;24.19;100.00;101954.38;5048164;28;20442;-74
2023/06/25 09:50:27;;;;;;;9.63;8.07;;;;;;;24.16;100.00;101938.47;5050162;28;20452;-73
2023/06/25 09:52:59;;;;;;;8.30;7.20;;;;;;;23.78;100.00;101871.88;5050930;28;21005;-72
2023/06/25 09:55:26;;;;;;;8.83;7.00;;;;;;;24.12;100.00;101931.84;5051626;28;20442;-72
2023/06/25 09:57:53;;;;;;;9.63;6.63;;;;;;;24.02;100.00;101885.19;5052478;28;20448;-72
2023/06/25 10:00:20;;;;;;;11.20;7.73;;;;;;;25.18;100.00;101927.22;5049891;28;20460;-71
2023/06/25 10:02:46;;;;;;;8.07;7.10;;;;;;;24.53;100.00;101878.13;5048267;28;20445;-81
2023/06/25 10:05:12;;;;;;;7.33;6.63;;;;;;;24.46;100.00;101909.59;5050452;28;20453;-76
2023/06/25 10:07:39;;;;;;;8.60;6.87;;;;;;;24.49;100.00;101909.91;5049884;28;20552;-74
2023/06/25 10:10:04;;;;;;;6.87;6.17;;;;;;;24.95;100.00;101901.03;5050904;28;20445;-72
2023/06/25 10:12:35;;;;;;;7.57;6.07;;;;;;;24.41;100.00;101876.63;5050559;28;20469;-72
2023/06/25 10:15:04;;;;;;;6.30;5.47;;;;;;;25.26;100.00;101910.22;5052123;28;20437;-75
2023/06/25 10:17:29;;;;;;;8.25;6.53;;;;;;;24.93;100.00;101903.22;5050653;28;20487;-74
2023/06/25 10:19:57;;;;;;;7.47;6.03;;;;;;;25.23;100.00;101880.56;5051241;28;20179;-86
2023/06/25 10:22:23;;;;;;;7.00;6.20;;;;;;;24.96;100.00;101891.69;5066871;28;20235;-84
2023/06/25 10:24:51;;;;;;;7.93;7.07;;;;;;;25.21;100.00;101910.19;5059891;28;21093;-78
2023/06/25 10:27:26;;;;;;;7.00;6.30;;;;;;;25.01;100.00;101903.53;5050172;28;20544;-79
2023/06/25 10:29:56;;;;;;;7.37;5.53;;;;;;;24.85;100.00;101893.59;5049219;28;20455;-82
2023/06/25 10:32:29;;;;;;;9.40;6.27;;;;;;;24.75;100.00;101902.59;5054638;28;20502;-77
2023/06/25 10:34:56;;;;;;;7.53;6.80;;;;;;;25.13;100.00;101906.03;5048766;28;20431;-78
2023/06/25 10:37:27;;;;;;;7.13;6.10;;;;;;;24.93;100.00;101901.28;5053127;28;20454;-77
2023/06/25 10:40:01;;;;;;;7.60;6.90;;;;;;;24.72;100.00;101886.69;5053670;28;20465;-78
2023/06/25 10:42:29;;;;;;;7.13;6.13;;;;;;;24.84;100.00;101878.22;5053192;28;20464;-78
2023/06/25 10:44:54;;;;;;;7.07;6.30;;;;;;;24.73;100.00;101874.59;5053694;28;20519;-78
2023/06/25 10:47:20;;;;;;;6.93;6.10;;;;;;;24.65;100.00;101852.34;5051378;28;20854;-80
2023/06/25 10:49:45;;;;;;;7.00;5.93;;;;;;;24.78;100.00;101846.38;5053261;28;20180;-75
2023/06/25 10:52:11;;;;;;;7.63;6.93;;;;;;;25.11;100.00;101858.81;5054029;28;20276;-80
2023/06/25 10:54:36;;;;;;;9.03;6.80;;;;;;;26.00;100.00;101878.63;5055426;28;20206;-76
2023/06/25 10:57:09;;;;;;;7.07;6.37;;;;;;;25.37;100.00;101864.34;5060042;28;20546;-77
2023/06/25 10:59:35;;;;;;;7.87;6.37;;;;;;;25.95;100.00;101861.31;5054697;28;20179;-77
2023/06/25 11:02:20;;;;;;;8.10;7.30;;;;;;;26.19;100.00;101881.63;5055041;28;20462;-75